createdAt,value
2022-12-13T00:00:00.000Z,79.01
2022-12-13T00:15:00.000Z,79.13
2022-12-13T00:30:00.000Z,79.4
2022-12-13T00:45:00.000Z,78.85
2022-12-13T01:00:00.000Z,78.8
2022-12-13T01:15:00.000Z,78.44
2022-12-13T01:30:00.000Z,78.86
2022-12-13T01:45:00.000Z,79.67
2022-12-13T02:00:00.000Z,79.54
2022-12-13T02:15:00.000Z,79.4
2022-12-13T02:30:00.000Z,78.93
2022-12-13T02:45:00.000Z,78.89
2022-12-13T03:00:00.000Z,78.98
2022-12-13T03:15:00.000Z,79.06
2022-12-13T03:30:00.000Z,78.72
2022-12-13T03:45:00.000Z,78.07
2022-12-13T04:00:00.000Z,78.79
2022-12-13T04:15:00.000Z,78.78
2022-12-13T04:30:00.000Z,79.47
2022-12-13T04:45:00.000Z,78.53
2022-12-13T05:00:00.000Z,77.87
2022-12-13T05:15:00.000Z,78.23
2022-12-13T05:30:00.000Z,76.27
2022-12-13T06:00:00.000Z,76.66
2022-12-13T06:00:00.000Z,76.82
2022-12-13T06:15:00.000Z,77.24
2022-12-13T06:30:00.000Z,77.09
2022-12-13T06:45:00.000Z,75.62
2022-12-13T07:00:00.000Z,75.75
2022-12-13T07:15:00.000Z,75.67
2022-12-13T07:30:00.000Z,75.14
2022-12-13T07:45:00.000Z,74.77
2022-12-13T08:00:00.000Z,74.74
2022-12-13T08:15:00.000Z,75.4
2022-12-13T08:30:00.000Z,75.04
2022-12-13T08:45:00.000Z,75.19
2022-12-13T09:00:00.000Z,74.47
2022-12-13T09:15:00.000Z,75.27
2022-12-13T09:30:00.000Z,76.23
2022-12-13T09:45:00.000Z,68.62
2022-12-13T10:00:00.000Z,62.21
2022-12-13T10:15:00.000Z,59.38
2022-12-13T10:30:00.000Z,58.99
2022-12-13T10:45:00.000Z,60.68
2022-12-13T11:00:00.000Z,58.58
2022-12-13T11:15:00.000Z,58.84
2022-12-13T11:30:00.000Z,60.63
2022-12-13T11:45:00.000Z,60.3
2022-12-13T12:00:00.000Z,61.25
2022-12-13T12:15:00.000Z,62.4
2022-12-13T12:30:00.000Z,63.64
2022-12-13T12:45:00.000Z,65.01
2022-12-13T13:00:00.000Z,66.62
2022-12-13T13:15:00.000Z,67.99
2022-12-13T13:30:00.000Z,68.87
2022-12-13T13:45:00.000Z,69.02
2022-12-13T14:00:00.000Z,69.81
2022-12-13T14:15:00.000Z,69
2022-12-13T14:30:00.000Z,69.88
2022-12-13T14:45:00.000Z,70.86
2022-12-13T15:00:00.000Z,71.91
2022-12-13T15:15:00.000Z,72.72
2022-12-13T15:30:00.000Z,73.92
2022-12-13T15:45:00.000Z,74.43
2022-12-13T16:00:00.000Z,75.33
2022-12-13T16:15:00.000Z,75.79
2022-12-13T16:30:00.000Z,76.34
2022-12-13T16:45:00.000Z,76.75
2022-12-13T17:00:00.000Z,77.37
2022-12-13T17:15:00.000Z,77.92
2022-12-13T17:30:00.000Z,77.33
2022-12-13T17:45:00.000Z,76.85
2022-12-13T18:00:00.000Z,77.02
2022-12-13T18:15:00.000Z,77.11
2022-12-13T18:30:00.000Z,77.45
2022-12-13T18:45:00.000Z,77.82
2022-12-13T19:00:00.000Z,77.75
2022-12-13T19:15:00.000Z,77.46
2022-12-13T19:30:00.000Z,77.35
2022-12-13T19:45:00.000Z,77.71
2022-12-13T20:00:00.000Z,77.73
2022-12-13T20:15:00.000Z,77.62
2022-12-13T20:30:00.000Z,77.25
2022-12-13T20:45:00.000Z,77.23
2022-12-13T21:00:00.000Z,77.01
2022-12-13T21:15:00.000Z,77.18
2022-12-13T21:30:00.000Z,77.13
2022-12-13T21:45:00.000Z,76.92
2022-12-13T22:00:00.000Z,76.97
2022-12-13T22:15:00.000Z,76.19
2022-12-13T22:30:00.000Z,75.48
2022-12-13T22:45:00.000Z,76.01
2022-12-13T23:00:00.000Z,76.46
2022-12-13T23:15:00.000Z,76.17
2022-12-13T23:30:00.000Z,76.8
2022-12-13T23:45:00.000Z,76.74
